createdAt,value
2018-08-20T00:04:11.137Z,4.33
2018-08-20T00:09:14.640Z,7.40
2018-08-20T00:14:20.580Z,3.98
2018-08-20T00:19:24.103Z,3.20
2018-08-20T00:24:27.761Z,4.03
2018-08-20T00:29:31.692Z,5.33
2018-08-20T00:34:35.235Z,4.22
2018-08-20T00:39:38.662Z,2.55
2018-08-20T00:44:42.210Z,3.98
2018-08-20T00:49:45.705Z,4.37
2018-08-20T00:54:49.137Z,2.52
2018-08-20T00:59:52.736Z,3.47
2018-08-20T01:04:56.360Z,2.02
2018-08-20T01:10:00.009Z,3.10
2018-08-20T01:15:06.619Z,2.77
2018-08-20T01:20:10.126Z,2.20
2018-08-20T01:25:13.661Z,4.27
2018-08-20T01:30:17.255Z,4.20
2018-08-20T01:35:28.401Z,2.33
2018-08-20T01:40:31.894Z,3.22
2018-08-20T01:45:35.506Z,3.40
2018-08-20T01:50:39.077Z,3.02
2018-08-20T01:55:42.593Z,5.08
2018-08-20T02:00:46.068Z,2.95
2018-08-20T02:05:49.633Z,2.42
2018-08-20T02:10:53.129Z,3.35
2018-08-20T02:15:56.673Z,3.98
2018-08-20T02:21:00.230Z,4.90
2018-08-20T02:26:03.805Z,3.15
2018-08-20T02:31:07.553Z,1.95
2018-08-20T02:36:11.124Z,3.22
2018-08-20T02:41:14.592Z,3.02
2018-08-20T02:46:28.002Z,2.98
2018-08-20T02:51:31.517Z,2.02
2018-08-20T02:56:35.055Z,2.30
2018-08-20T03:01:38.891Z,3.40
2018-08-20T03:06:42.400Z,4.12
2018-08-20T03:11:45.957Z,3.85
2018-08-20T03:16:49.482Z,2.15
2018-08-20T03:21:53.014Z,2.40
2018-08-20T03:26:57.441Z,4.05
2018-08-20T03:32:01.371Z,3.42
2018-08-20T03:37:04.955Z,3.30
2018-08-20T03:42:08.517Z,2.60
2018-08-20T03:47:12.060Z,2.25
2018-08-20T03:52:15.736Z,3.35
2018-08-20T03:57:19.267Z,2.55
2018-08-20T04:02:22.814Z,3.47
2018-08-20T04:07:26.337Z,2.55
2018-08-20T04:12:29.808Z,3.00
2018-08-20T04:17:33.270Z,2.45
2018-08-20T04:22:36.864Z,3.45
2018-08-20T04:27:40.425Z,4.42
2018-08-20T04:32:44.013Z,5.03
2018-08-20T04:37:47.551Z,3.17
2018-08-20T04:42:51.032Z,5.75
2018-08-20T04:47:54.625Z,3.40
2018-08-20T04:53:04.628Z,4.47
2018-08-20T04:58:08.218Z,6.12
2018-08-20T05:03:15.929Z,5.72
2018-08-20T05:08:19.452Z,2.83
2018-08-20T05:13:22.966Z,4.37
2018-08-20T05:18:26.585Z,3.50
2018-08-20T05:23:30.130Z,4.35
2018-08-20T05:28:33.623Z,3.42
2018-08-20T05:33:37.164Z,4.97
2018-08-20T05:38:40.766Z,4.60
2018-08-20T05:43:44.308Z,3.50
2018-08-20T05:48:47.870Z,5.25
2018-08-20T05:53:51.398Z,8.45
2018-08-20T05:58:54.962Z,4.80
2018-08-20T06:03:58.506Z,5.70
2018-08-20T06:09:02.025Z,4.75
2018-08-20T06:14:05.906Z,5.80
2018-08-20T06:19:09.454Z,6.42
2018-08-20T06:24:13.101Z,9.63
2018-08-20T06:29:16.597Z,11.28
2018-08-20T06:34:20.102Z,12.43
2018-08-20T06:39:23.641Z,6.37
2018-08-20T06:44:27.179Z,7.75
2018-08-20T06:49:30.722Z,5.30
2018-08-20T06:54:34.316Z,8.20
2018-08-20T06:59:37.810Z,7.97
2018-08-20T07:04:41.766Z,8.50
2018-08-20T07:09:45.334Z,9.08
2018-08-20T07:14:48.979Z,6.47
2018-08-20T07:19:52.560Z,7.65
2018-08-20T07:24:56.209Z,9.40
2018-08-20T07:29:59.727Z,9.75
2018-08-20T07:35:04.039Z,11.00
2018-08-20T07:40:08.293Z,10.15
2018-08-20T07:45:11.897Z,9.10
2018-08-20T07:50:15.501Z,10.50
2018-08-20T07:55:19.123Z,8.63
2018-08-20T08:00:22.749Z,8.67
2018-08-20T08:05:26.268Z,9.43
2018-08-20T08:10:29.837Z,9.53
2018-08-20T08:15:33.440Z,9.68
2018-08-20T08:20:37.178Z,8.58
2018-08-20T08:25:40.720Z,8.90
2018-08-20T08:30:44.335Z,9.68
2018-08-20T08:35:47.858Z,6.50
2018-08-20T08:40:51.397Z,8.18
2018-08-20T08:45:54.966Z,8.75
2018-08-20T08:50:58.547Z,7.58
2018-08-20T08:56:02.105Z,7.33
2018-08-20T09:01:05.655Z,7.00
2018-08-20T09:06:09.174Z,8.08
2018-08-20T09:11:12.651Z,7.92
2018-08-20T09:16:16.142Z,9.53
2018-08-20T09:21:19.777Z,9.10
2018-08-20T09:26:23.268Z,12.18
2018-08-20T09:31:26.843Z,9.55
2018-08-20T09:36:30.344Z,10.28
2018-08-20T09:41:33.890Z,10.30
2018-08-20T09:46:37.493Z,8.25
2018-08-20T09:51:41.004Z,9.30
2018-08-20T09:56:44.522Z,7.08
2018-08-20T10:01:48.082Z,8.83
2018-08-20T10:06:51.572Z,8.08
2018-08-20T10:11:55.185Z,4.75
2018-08-20T10:16:58.761Z,5.80
2018-08-20T10:22:02.313Z,6.28
2018-08-20T10:27:05.926Z,7.03
2018-08-20T10:32:09.511Z,6.40
2018-08-20T10:37:12.972Z,6.50
2018-08-20T10:42:16.549Z,14.07
2018-08-20T10:47:20.190Z,11.35
2018-08-20T10:52:23.681Z,5.75
2018-08-20T10:57:27.315Z,4.35
2018-08-20T11:02:30.862Z,5.17
2018-08-20T11:07:34.501Z,6.62
2018-08-20T11:12:38.394Z,8.08
2018-08-20T11:17:41.959Z,4.40
2018-08-20T11:22:45.769Z,5.42
2018-08-20T11:27:55.833Z,7.35
2018-08-20T11:32:59.374Z,5.08
2018-08-20T11:38:02.898Z,3.62
2018-08-20T11:43:06.930Z,5.75
2018-08-20T11:48:10.497Z,5.17
2018-08-20T11:53:13.986Z,5.90
2018-08-20T11:58:17.593Z,6.87
2018-08-20T12:03:21.065Z,4.60
2018-08-20T12:08:24.602Z,4.47
2018-08-20T12:13:28.110Z,3.65
2018-08-20T12:18:31.605Z,4.72
2018-08-20T12:23:35.148Z,4.40
2018-08-20T12:28:38.691Z,7.03
2018-08-20T12:33:42.199Z,3.95
2018-08-20T12:38:45.627Z,3.47
2018-08-20T12:43:49.089Z,5.28
2018-08-20T12:48:53.060Z,4.17
2018-08-20T12:53:56.575Z,4.22
2018-08-20T12:59:00.165Z,4.25
2018-08-20T13:04:03.673Z,7.37
2018-08-20T13:09:08.213Z,4.27
2018-08-20T13:14:11.718Z,10.10
2018-08-20T13:19:15.286Z,6.03
2018-08-20T13:24:18.887Z,9.45
2018-08-20T13:29:22.477Z,8.68
2018-08-20T13:34:25.930Z,4.30
2018-08-20T13:39:29.478Z,5.05
2018-08-20T13:44:32.957Z,11.57
2018-08-20T13:49:37.364Z,4.37
2018-08-20T13:54:40.873Z,7.90
2018-08-20T13:59:44.474Z,5.75
2018-08-20T14:04:47.999Z,6.15
2018-08-20T14:09:51.617Z,4.35
2018-08-20T14:14:55.526Z,3.72
2018-08-20T14:20:00.004Z,3.75
2018-08-20T14:25:03.702Z,6.42
2018-08-20T14:30:16.580Z,5.80
2018-08-20T14:35:20.328Z,4.03
2018-08-20T14:40:23.940Z,4.13
2018-08-20T14:45:31.585Z,2.40
2018-08-20T14:50:35.188Z,3.50
2018-08-20T14:55:38.802Z,2.30
2018-08-20T15:00:42.646Z,2.20
2018-08-20T15:05:46.212Z,5.35
2018-08-20T15:10:49.654Z,4.87
2018-08-20T15:15:53.299Z,4.42
2018-08-20T15:20:57.309Z,3.00
2018-08-20T15:26:00.813Z,5.97
2018-08-20T15:31:04.602Z,2.92
2018-08-20T15:36:08.162Z,4.03
2018-08-20T15:41:11.813Z,12.37
2018-08-20T15:46:15.489Z,4.78
2018-08-20T15:51:18.891Z,16.48
2018-08-20T15:56:22.671Z,2.95
2018-08-20T16:01:26.165Z,1.95
2018-08-20T16:06:29.631Z,3.17
2018-08-20T16:11:33.337Z,3.40
2018-08-20T16:16:36.889Z,4.35
2018-08-20T16:21:40.413Z,4.17
2018-08-20T16:26:43.952Z,5.60
2018-08-20T16:31:47.575Z,3.83
2018-08-20T16:36:51.337Z,2.60
2018-08-20T16:41:54.849Z,4.05
2018-08-20T16:46:58.541Z,1.65
2018-08-20T16:52:08.459Z,1.92
2018-08-20T16:57:12.109Z,3.62
2018-08-20T17:02:19.954Z,2.05
2018-08-20T17:07:23.459Z,1.42
2018-08-20T17:12:26.929Z,1.77
2018-08-20T17:17:30.484Z,2.65
2018-08-20T17:22:34.095Z,1.40
2018-08-20T17:27:37.590Z,3.45
2018-08-20T17:32:41.102Z,1.95
2018-08-20T17:37:45.229Z,2.67
2018-08-20T17:42:48.813Z,4.87
2018-08-20T17:47:52.464Z,6.00
2018-08-20T17:52:56.462Z,1.92
2018-08-20T17:57:59.964Z,3.90
2018-08-20T18:03:03.543Z,6.03
2018-08-20T18:08:07.133Z,1.75
2018-08-20T18:13:10.799Z,3.85
2018-08-20T18:18:14.496Z,1.75
2018-08-20T18:23:18.143Z,2.02
2018-08-20T18:28:21.820Z,1.92
2018-08-20T18:33:26.607Z,3.15
2018-08-20T18:38:36.987Z,4.97
2018-08-20T18:43:40.630Z,2.50
2018-08-20T18:48:44.188Z,2.92
2018-08-20T18:53:47.821Z,3.33
2018-08-20T18:58:51.440Z,3.60
2018-08-20T19:03:55.854Z,1.75
2018-08-20T19:08:59.395Z,2.75
2018-08-20T19:14:07.367Z,4.65
2018-08-20T19:19:11.122Z,1.85
2018-08-20T19:24:14.688Z,2.80
2018-08-20T19:29:27.051Z,2.02
2018-08-20T19:34:30.633Z,2.20
2018-08-20T19:39:34.699Z,1.82
2018-08-20T19:44:38.406Z,2.22
2018-08-20T19:49:41.985Z,3.60
2018-08-20T19:54:47.005Z,2.70
2018-08-20T19:59:51.317Z,2.22
2018-08-20T20:04:59.067Z,3.08
2018-08-20T20:10:07.733Z,2.50
2018-08-20T20:15:12.022Z,3.12
2018-08-20T20:20:15.622Z,1.60
2018-08-20T20:25:19.505Z,2.20
2018-08-20T20:30:23.091Z,2.50
2018-08-20T20:35:26.562Z,1.87
2018-08-20T20:40:30.255Z,5.30
2018-08-20T20:45:33.852Z,3.55
2018-08-20T20:50:37.502Z,5.15
2018-08-20T20:55:41.075Z,5.65
2018-08-20T21:00:44.779Z,2.67
2018-08-20T21:05:48.371Z,5.60
2018-08-20T21:10:52.037Z,4.28
2018-08-20T21:16:00.978Z,2.37
2018-08-20T21:21:04.561Z,3.50
2018-08-20T21:26:08.888Z,5.00
2018-08-20T21:31:13.557Z,3.10
2018-08-20T21:36:17.391Z,3.25
2018-08-20T21:41:27.297Z,5.22
2018-08-20T21:46:30.870Z,7.80
2018-08-20T21:51:41.463Z,4.47
2018-08-20T22:06:27.656Z,4.70
2018-08-20T22:11:31.222Z,7.72
2018-08-20T22:16:34.875Z,4.85
2018-08-20T22:21:38.502Z,4.20
2018-08-20T22:26:47.095Z,3.33
2018-08-20T22:31:56.608Z,3.85
2018-08-20T22:37:05.850Z,3.30
2018-08-20T22:42:09.560Z,3.33
2018-08-20T22:47:13.327Z,3.72
2018-08-20T22:52:21.105Z,7.75
2018-08-20T22:57:24.833Z,5.00
2018-08-20T23:02:28.346Z,6.47
2018-08-20T23:07:31.842Z,8.83
2018-08-20T23:12:39.501Z,6.03
2018-08-20T23:17:43.077Z,5.90
2018-08-20T23:22:49.409Z,4.22
2018-08-20T23:27:52.944Z,4.20
2018-08-20T23:32:56.478Z,5.20
2018-08-20T23:37:59.962Z,5.90
2018-08-20T23:43:03.491Z,5.45
2018-08-20T23:48:06.986Z,4.77
2018-08-20T23:53:10.550Z,4.40
2018-08-20T23:58:14.141Z,6.30
